sensor_id;sensor_type;location;lat;lon;timestamp;P1;durP1;ratioP1;P2;durP2;ratioP2
81330;SDS011;70793;53.076;8.822;2023-06-22T00:00:27;2.10;;;1.90;;
81330;SDS011;70793;53.076;8.822;2023-06-22T00:02:52;2.47;;;2.10;;
81330;SDS011;70793;53.076;8.822;2023-06-22T00:05:17;6.63;;;5.30;;
81330;SDS011;70793;53.076;8.822;2023-06-22T00:07:43;3.22;;;2.30;;
81330;SDS011;70793;53.076;8.822;2023-06-22T00:10:08;2.33;;;2.13;;
81330;SDS011;70793;53.076;8.822;2023-06-22T00:12:34;3.08;;;2.55;;
81330;SDS011;70793;53.076;8.822;2023-06-22T00:14:59;2.95;;;2.20;;
81330;SDS011;70793;53.076;8.822;2023-06-22T00:17:25;2.55;;;2.10;;
81330;SDS011;70793;53.076;8.822;2023-06-22T00:19:50;2.30;;;2.00;;
81330;SDS011;70793;53.076;8.822;2023-06-22T00:22:18;2.25;;;2.05;;
81330;SDS011;70793;53.076;8.822;2023-06-22T00:24:53;2.40;;;2.20;;
81330;SDS011;70793;53.076;8.822;2023-06-22T00:27:18;2.55;;;2.15;;
81330;SDS011;70793;53.076;8.822;2023-06-22T00:29:44;2.20;;;2.00;;
81330;SDS011;70793;53.076;8.822;2023-06-22T00:32:09;2.27;;;2.07;;
81330;SDS011;70793;53.076;8.822;2023-06-22T00:34:34;2.13;;;1.85;;
81330;SDS011;70793;53.076;8.822;2023-06-22T00:37:00;2.70;;;2.40;;
81330;SDS011;70793;53.076;8.822;2023-06-22T00:39:25;2.63;;;2.30;;
81330;SDS011;70793;53.076;8.822;2023-06-22T00:41:50;1.92;;;1.73;;
81330;SDS011;70793;53.076;8.822;2023-06-22T00:44:16;2.30;;;2.10;;
81330;SDS011;70793;53.076;8.822;2023-06-22T00:46:41;3.00;;;2.50;;
81330;SDS011;70793;53.076;8.822;2023-06-22T00:49:06;2.10;;;1.80;;
81330;SDS011;70793;53.076;8.822;2023-06-22T00:51:32;2.97;;;2.17;;
81330;SDS011;70793;53.076;8.822;2023-06-22T00:53:57;2.42;;;2.22;;
81330;SDS011;70793;53.076;8.822;2023-06-22T00:56:23;2.38;;;2.17;;
81330;SDS011;70793;53.076;8.822;2023-06-22T00:58:49;2.67;;;2.47;;
81330;SDS011;70793;53.076;8.822;2023-06-22T01:01:17;2.65;;;2.40;;
81330;SDS011;70793;53.076;8.822;2023-06-22T01:03:43;2.97;;;2.63;;
81330;SDS011;70793;53.076;8.822;2023-06-22T01:06:09;3.45;;;2.78;;
81330;SDS011;70793;53.076;8.822;2023-06-22T01:08:42;3.30;;;3.00;;
81330;SDS011;70793;53.076;8.822;2023-06-22T01:11:21;3.30;;;3.00;;
81330;SDS011;70793;53.076;8.822;2023-06-22T01:13:54;3.35;;;2.67;;
81330;SDS011;70793;53.076;8.822;2023-06-22T01:16:25;3.55;;;3.05;;
81330;SDS011;70793;53.076;8.822;2023-06-22T01:18:52;3.30;;;3.00;;
81330;SDS011;70793;53.076;8.822;2023-06-22T01:21:21;3.97;;;2.95;;
81330;SDS011;70793;53.076;8.822;2023-06-22T01:23:50;3.47;;;3.00;;
81330;SDS011;70793;53.076;8.822;2023-06-22T01:28:54;3.00;;;2.55;;
81330;SDS011;70793;53.076;8.822;2023-06-22T01:31:24;3.95;;;3.13;;
81330;SDS011;70793;53.076;8.822;2023-06-22T01:34:02;4.65;;;3.22;;
81330;SDS011;70793;53.076;8.822;2023-06-22T01:36:28;3.45;;;3.15;;
81330;SDS011;70793;53.076;8.822;2023-06-22T01:38:54;3.85;;;3.33;;
81330;SDS011;70793;53.076;8.822;2023-06-22T01:41:21;3.70;;;2.83;;
81330;SDS011;70793;53.076;8.822;2023-06-22T01:43:49;3.25;;;2.95;;
81330;SDS011;70793;53.076;8.822;2023-06-22T01:46:14;3.60;;;3.30;;
81330;SDS011;70793;53.076;8.822;2023-06-22T01:48:40;3.55;;;3.20;;
81330;SDS011;70793;53.076;8.822;2023-06-22T01:51:05;3.80;;;3.10;;
81330;SDS011;70793;53.076;8.822;2023-06-22T01:53:31;3.05;;;2.75;;
81330;SDS011;70793;53.076;8.822;2023-06-22T01:55:56;3.30;;;3.00;;
81330;SDS011;70793;53.076;8.822;2023-06-22T01:58:23;4.38;;;3.97;;
81330;SDS011;70793;53.076;8.822;2023-06-22T02:00:53;3.78;;;3.38;;
81330;SDS011;70793;53.076;8.822;2023-06-22T02:03:33;4.38;;;3.95;;
81330;SDS011;70793;53.076;8.822;2023-06-22T02:06:05;3.75;;;3.38;;
81330;SDS011;70793;53.076;8.822;2023-06-22T02:08:35;3.55;;;3.17;;
81330;SDS011;70793;53.076;8.822;2023-06-22T02:11:03;4.47;;;3.92;;
81330;SDS011;70793;53.076;8.822;2023-06-22T02:13:31;3.45;;;3.15;;
81330;SDS011;70793;53.076;8.822;2023-06-22T02:15:57;3.20;;;2.80;;
81330;SDS011;70793;53.076;8.822;2023-06-22T02:18:22;3.72;;;3.00;;
81330;SDS011;70793;53.076;8.822;2023-06-22T02:20:48;4.10;;;3.40;;
81330;SDS011;70793;53.076;8.822;2023-06-22T02:23:13;3.43;;;3.03;;
81330;SDS011;70793;53.076;8.822;2023-06-22T02:25:38;3.65;;;3.25;;
81330;SDS011;70793;53.076;8.822;2023-06-22T02:28:04;3.30;;;2.85;;
81330;SDS011;70793;53.076;8.822;2023-06-22T02:30:30;3.33;;;3.03;;
81330;SDS011;70793;53.076;8.822;2023-06-22T02:32:55;3.67;;;3.25;;
81330;SDS011;70793;53.076;8.822;2023-06-22T02:35:27;3.20;;;2.85;;
81330;SDS011;70793;53.076;8.822;2023-06-22T02:37:56;3.97;;;2.90;;
81330;SDS011;70793;53.076;8.822;2023-06-22T02:40:22;3.38;;;2.92;;
81330;SDS011;70793;53.076;8.822;2023-06-22T02:42:47;3.33;;;3.03;;
81330;SDS011;70793;53.076;8.822;2023-06-22T02:45:12;2.65;;;2.45;;
81330;SDS011;70793;53.076;8.822;2023-06-22T02:47:38;3.20;;;2.90;;
81330;SDS011;70793;53.076;8.822;2023-06-22T02:50:03;3.67;;;3.38;;
81330;SDS011;70793;53.076;8.822;2023-06-22T02:52:29;3.38;;;3.08;;
81330;SDS011;70793;53.076;8.822;2023-06-22T02:54:54;3.58;;;3.22;;
81330;SDS011;70793;53.076;8.822;2023-06-22T02:57:20;3.20;;;3.00;;
81330;SDS011;70793;53.076;8.822;2023-06-22T02:59:45;4.00;;;3.60;;
81330;SDS011;70793;53.076;8.822;2023-06-22T03:02:10;3.63;;;3.30;;
81330;SDS011;70793;53.076;8.822;2023-06-22T03:04:36;3.90;;;2.92;;
81330;SDS011;70793;53.076;8.822;2023-06-22T03:07:01;3.22;;;2.92;;
81330;SDS011;70793;53.076;8.822;2023-06-22T03:09:27;3.53;;;3.22;;
81330;SDS011;70793;53.076;8.822;2023-06-22T03:11:53;3.40;;;3.10;;
81330;SDS011;70793;53.076;8.822;2023-06-22T03:14:19;4.10;;;3.08;;
81330;SDS011;70793;53.076;8.822;2023-06-22T03:16:44;3.33;;;3.03;;
81330;SDS011;70793;53.076;8.822;2023-06-22T03:19:10;3.77;;;3.47;;
81330;SDS011;70793;53.076;8.822;2023-06-22T03:21:37;3.97;;;3.67;;
81330;SDS011;70793;53.076;8.822;2023-06-22T03:24:03;5.25;;;4.35;;
81330;SDS011;70793;53.076;8.822;2023-06-22T03:26:29;4.38;;;3.97;;
81330;SDS011;70793;53.076;8.822;2023-06-22T03:28:55;4.43;;;3.97;;
81330;SDS011;70793;53.076;8.822;2023-06-22T03:31:20;4.20;;;3.80;;
81330;SDS011;70793;53.076;8.822;2023-06-22T03:33:47;4.53;;;3.83;;
81330;SDS011;70793;53.076;8.822;2023-06-22T03:36:13;8.25;;;3.53;;
81330;SDS011;70793;53.076;8.822;2023-06-22T03:38:39;5.03;;;4.32;;
81330;SDS011;70793;53.076;8.822;2023-06-22T03:41:04;3.92;;;3.42;;
81330;SDS011;70793;53.076;8.822;2023-06-22T03:43:29;3.63;;;3.33;;
81330;SDS011;70793;53.076;8.822;2023-06-22T03:45:55;4.72;;;3.53;;
81330;SDS011;70793;53.076;8.822;2023-06-22T03:48:20;4.40;;;3.67;;
81330;SDS011;70793;53.076;8.822;2023-06-22T03:50:45;4.07;;;3.70;;
81330;SDS011;70793;53.076;8.822;2023-06-22T03:53:11;4.63;;;3.83;;
81330;SDS011;70793;53.076;8.822;2023-06-22T03:55:36;4.30;;;3.60;;
81330;SDS011;70793;53.076;8.822;2023-06-22T03:58:02;4.10;;;3.70;;
81330;SDS011;70793;53.076;8.822;2023-06-22T04:00:30;4.30;;;3.88;;
81330;SDS011;70793;53.076;8.822;2023-06-22T04:02:57;4.50;;;4.00;;
81330;SDS011;70793;53.076;8.822;2023-06-22T04:05:22;5.30;;;4.28;;
81330;SDS011;70793;53.076;8.822;2023-06-22T04:07:48;5.20;;;4.70;;
81330;SDS011;70793;53.076;8.822;2023-06-22T04:10:13;4.60;;;4.17;;
81330;SDS011;70793;53.076;8.822;2023-06-22T04:12:38;4.85;;;4.35;;
81330;SDS011;70793;53.076;8.822;2023-06-22T04:15:04;4.45;;;3.53;;
81330;SDS011;70793;53.076;8.822;2023-06-22T04:17:30;4.25;;;3.72;;
81330;SDS011;70793;53.076;8.822;2023-06-22T04:19:55;4.45;;;4.05;;
81330;SDS011;70793;53.076;8.822;2023-06-22T04:22:21;4.70;;;4.30;;
81330;SDS011;70793;53.076;8.822;2023-06-22T04:24:46;4.67;;;4.00;;
81330;SDS011;70793;53.076;8.822;2023-06-22T04:27:12;4.93;;;4.43;;
81330;SDS011;70793;53.076;8.822;2023-06-22T04:29:37;5.40;;;4.60;;
81330;SDS011;70793;53.076;8.822;2023-06-22T04:32:03;4.45;;;4.05;;
81330;SDS011;70793;53.076;8.822;2023-06-22T04:34:30;4.80;;;4.30;;
81330;SDS011;70793;53.076;8.822;2023-06-22T04:36:55;5.25;;;4.68;;
81330;SDS011;70793;53.076;8.822;2023-06-22T04:39:21;5.30;;;4.80;;
81330;SDS011;70793;53.076;8.822;2023-06-22T04:41:46;5.15;;;4.65;;
81330;SDS011;70793;53.076;8.822;2023-06-22T04:44:12;6.25;;;4.35;;
81330;SDS011;70793;53.076;8.822;2023-06-22T04:46:37;5.93;;;4.85;;
81330;SDS011;70793;53.076;8.822;2023-06-22T04:49:07;5.47;;;4.53;;
81330;SDS011;70793;53.076;8.822;2023-06-22T04:51:39;4.82;;;4.18;;
81330;SDS011;70793;53.076;8.822;2023-06-22T04:54:06;5.80;;;4.90;;
81330;SDS011;70793;53.076;8.822;2023-06-22T04:56:32;5.63;;;4.88;;
81330;SDS011;70793;53.076;8.822;2023-06-22T04:58:58;6.07;;;5.45;;
81330;SDS011;70793;53.076;8.822;2023-06-22T05:01:23;5.40;;;4.90;;
81330;SDS011;70793;53.076;8.822;2023-06-22T05:03:49;5.65;;;4.75;;
81330;SDS011;70793;53.076;8.822;2023-06-22T05:06:15;5.93;;;4.85;;
81330;SDS011;70793;53.076;8.822;2023-06-22T05:08:40;6.35;;;5.30;;
81330;SDS011;70793;53.076;8.822;2023-06-22T05:11:06;6.32;;;5.28;;
81330;SDS011;70793;53.076;8.822;2023-06-22T05:13:31;5.22;;;4.72;;
81330;SDS011;70793;53.076;8.822;2023-06-22T05:15:57;6.25;;;5.47;;
81330;SDS011;70793;53.076;8.822;2023-06-22T05:18:30;7.32;;;4.65;;
81330;SDS011;70793;53.076;8.822;2023-06-22T05:20:56;5.93;;;4.88;;
81330;SDS011;70793;53.076;8.822;2023-06-22T05:23:23;5.50;;;4.88;;
81330;SDS011;70793;53.076;8.822;2023-06-22T05:25:48;6.22;;;5.00;;
81330;SDS011;70793;53.076;8.822;2023-06-22T05:28:13;6.70;;;4.95;;
81330;SDS011;70793;53.076;8.822;2023-06-22T05:30:39;6.03;;;4.80;;
81330;SDS011;70793;53.076;8.822;2023-06-22T05:33:04;5.23;;;4.67;;
81330;SDS011;70793;53.076;8.822;2023-06-22T05:35:30;5.80;;;4.78;;
81330;SDS011;70793;53.076;8.822;2023-06-22T05:37:55;5.68;;;4.75;;
81330;SDS011;70793;53.076;8.822;2023-06-22T05:40:21;4.70;;;3.93;;
81330;SDS011;70793;53.076;8.822;2023-06-22T05:42:46;6.80;;;5.35;;
81330;SDS011;70793;53.076;8.822;2023-06-22T05:45:12;4.72;;;4.18;;
81330;SDS011;70793;53.076;8.822;2023-06-22T05:47:38;5.70;;;4.72;;
81330;SDS011;70793;53.076;8.822;2023-06-22T05:50:04;5.40;;;4.38;;
81330;SDS011;70793;53.076;8.822;2023-06-22T05:52:32;5.57;;;4.45;;
81330;SDS011;70793;53.076;8.822;2023-06-22T05:54:57;4.15;;;3.45;;
81330;SDS011;70793;53.076;8.822;2023-06-22T05:57:23;4.72;;;3.97;;
81330;SDS011;70793;53.076;8.822;2023-06-22T05:59:48;4.65;;;4.25;;
81330;SDS011;70793;53.076;8.822;2023-06-22T06:02:14;4.43;;;3.90;;
81330;SDS011;70793;53.076;8.822;2023-06-22T06:04:39;3.78;;;3.28;;
81330;SDS011;70793;53.076;8.822;2023-06-22T06:07:05;3.70;;;3.35;;
81330;SDS011;70793;53.076;8.822;2023-06-22T06:09:30;3.10;;;2.80;;
81330;SDS011;70793;53.076;8.822;2023-06-22T06:11:56;3.63;;;2.88;;
81330;SDS011;70793;53.076;8.822;2023-06-22T06:14:21;2.53;;;2.33;;
81330;SDS011;70793;53.076;8.822;2023-06-22T06:16:48;3.08;;;2.55;;
81330;SDS011;70793;53.076;8.822;2023-06-22T06:19:14;2.53;;;2.33;;
81330;SDS011;70793;53.076;8.822;2023-06-22T06:21:39;3.17;;;2.50;;
81330;SDS011;70793;53.076;8.822;2023-06-22T06:24:05;3.80;;;2.63;;
81330;SDS011;70793;53.076;8.822;2023-06-22T06:26:30;4.28;;;2.60;;
81330;SDS011;70793;53.076;8.822;2023-06-22T06:28:58;2.83;;;2.35;;
81330;SDS011;70793;53.076;8.822;2023-06-22T06:31:25;2.90;;;2.30;;
81330;SDS011;70793;53.076;8.822;2023-06-22T06:33:52;3.58;;;3.00;;
81330;SDS011;70793;53.076;8.822;2023-06-22T06:36:19;3.13;;;2.80;;
81330;SDS011;70793;53.076;8.822;2023-06-22T06:38:44;3.35;;;3.05;;
81330;SDS011;70793;53.076;8.822;2023-06-22T06:41:12;3.00;;;2.70;;
81330;SDS011;70793;53.076;8.822;2023-06-22T06:43:40;2.88;;;2.58;;
81330;SDS011;70793;53.076;8.822;2023-06-22T06:46:07;3.00;;;2.70;;
81330;SDS011;70793;53.076;8.822;2023-06-22T06:48:33;3.28;;;2.90;;
81330;SDS011;70793;53.076;8.822;2023-06-22T06:50:58;3.20;;;2.90;;
81330;SDS011;70793;53.076;8.822;2023-06-22T06:53:24;3.40;;;2.60;;
81330;SDS011;70793;53.076;8.822;2023-06-22T06:55:49;2.72;;;2.50;;
81330;SDS011;70793;53.076;8.822;2023-06-22T06:58:14;2.70;;;2.33;;
81330;SDS011;70793;53.076;8.822;2023-06-22T07:00:41;3.05;;;2.75;;
81330;SDS011;70793;53.076;8.822;2023-06-22T07:03:08;2.60;;;2.40;;
81330;SDS011;70793;53.076;8.822;2023-06-22T07:05:33;2.97;;;2.45;;
81330;SDS011;70793;53.076;8.822;2023-06-22T07:08:00;3.33;;;2.78;;
81330;SDS011;70793;53.076;8.822;2023-06-22T07:10:26;3.88;;;3.47;;
81330;SDS011;70793;53.076;8.822;2023-06-22T07:12:51;4.10;;;3.30;;
81330;SDS011;70793;53.076;8.822;2023-06-22T07:15:17;3.38;;;2.53;;
81330;SDS011;70793;53.076;8.822;2023-06-22T07:17:42;2.83;;;2.53;;
81330;SDS011;70793;53.076;8.822;2023-06-22T07:20:08;3.15;;;2.40;;
81330;SDS011;70793;53.076;8.822;2023-06-22T07:22:35;3.40;;;2.63;;
81330;SDS011;70793;53.076;8.822;2023-06-22T07:25:01;2.60;;;2.25;;
81330;SDS011;70793;53.076;8.822;2023-06-22T07:27:33;2.47;;;2.25;;
81330;SDS011;70793;53.076;8.822;2023-06-22T07:30:02;2.15;;;1.85;;
81330;SDS011;70793;53.076;8.822;2023-06-22T07:32:27;6.45;;;2.53;;
81330;SDS011;70793;53.076;8.822;2023-06-22T07:34:53;2.75;;;2.08;;
81330;SDS011;70793;53.076;8.822;2023-06-22T07:37:19;1.95;;;1.63;;
81330;SDS011;70793;53.076;8.822;2023-06-22T07:39:44;2.90;;;1.83;;
81330;SDS011;70793;53.076;8.822;2023-06-22T07:42:10;2.55;;;2.08;;
81330;SDS011;70793;53.076;8.822;2023-06-22T07:44:35;3.80;;;2.20;;
81330;SDS011;70793;53.076;8.822;2023-06-22T07:47:00;2.60;;;1.80;;
81330;SDS011;70793;53.076;8.822;2023-06-22T07:49:27;2.33;;;1.65;;
81330;SDS011;70793;53.076;8.822;2023-06-22T07:51:52;2.40;;;1.88;;
81330;SDS011;70793;53.076;8.822;2023-06-22T07:54:18;2.70;;;1.80;;
81330;SDS011;70793;53.076;8.822;2023-06-22T07:56:43;2.08;;;1.52;;
81330;SDS011;70793;53.076;8.822;2023-06-22T07:59:09;1.83;;;1.50;;
81330;SDS011;70793;53.076;8.822;2023-06-22T08:01:34;2.17;;;1.65;;
81330;SDS011;70793;53.076;8.822;2023-06-22T08:03:59;1.97;;;1.37;;
81330;SDS011;70793;53.076;8.822;2023-06-22T08:06:25;2.45;;;1.77;;
81330;SDS011;70793;53.076;8.822;2023-06-22T08:08:50;1.95;;;1.67;;
81330;SDS011;70793;53.076;8.822;2023-06-22T08:11:17;3.45;;;1.60;;
81330;SDS011;70793;53.076;8.822;2023-06-22T08:13:43;2.45;;;2.05;;
81330;SDS011;70793;53.076;8.822;2023-06-22T08:16:08;2.40;;;1.92;;
81330;SDS011;70793;53.076;8.822;2023-06-22T08:18:34;2.17;;;1.60;;
81330;SDS011;70793;53.076;8.822;2023-06-22T08:20:59;2.53;;;1.73;;
81330;SDS011;70793;53.076;8.822;2023-06-22T08:23:24;1.73;;;1.55;;
81330;SDS011;70793;53.076;8.822;2023-06-22T08:25:50;1.98;;;1.77;;
81330;SDS011;70793;53.076;8.822;2023-06-22T08:28:16;2.15;;;1.83;;
81330;SDS011;70793;53.076;8.822;2023-06-22T08:30:41;2.75;;;1.70;;
81330;SDS011;70793;53.076;8.822;2023-06-22T08:33:06;2.35;;;1.80;;
81330;SDS011;70793;53.076;8.822;2023-06-22T08:35:32;1.92;;;1.42;;
81330;SDS011;70793;53.076;8.822;2023-06-22T08:37:57;1.90;;;1.55;;
81330;SDS011;70793;53.076;8.822;2023-06-22T08:40:24;1.75;;;1.65;;
81330;SDS011;70793;53.076;8.822;2023-06-22T08:42:50;3.35;;;1.60;;
81330;SDS011;70793;53.076;8.822;2023-06-22T08:45:15;1.60;;;1.40;;
81330;SDS011;70793;53.076;8.822;2023-06-22T08:47:44;1.17;;;1.00;;
81330;SDS011;70793;53.076;8.822;2023-06-22T08:50:10;1.90;;;1.27;;
81330;SDS011;70793;53.076;8.822;2023-06-22T08:52:39;1.60;;;1.35;;
81330;SDS011;70793;53.076;8.822;2023-06-22T08:55:08;1.25;;;1.10;;
81330;SDS011;70793;53.076;8.822;2023-06-22T08:57:34;1.27;;;0.82;;
81330;SDS011;70793;53.076;8.822;2023-06-22T09:00:02;1.75;;;1.50;;
81330;SDS011;70793;53.076;8.822;2023-06-22T09:02:30;1.25;;;1.02;;
81330;SDS011;70793;53.076;8.822;2023-06-22T09:04:56;1.10;;;1.00;;
81330;SDS011;70793;53.076;8.822;2023-06-22T09:07:22;1.85;;;1.55;;
81330;SDS011;70793;53.076;8.822;2023-06-22T09:09:49;1.40;;;1.20;;
81330;SDS011;70793;53.076;8.822;2023-06-22T09:12:16;1.42;;;1.33;;
81330;SDS011;70793;53.076;8.822;2023-06-22T09:14:44;2.30;;;1.65;;
81330;SDS011;70793;53.076;8.822;2023-06-22T09:17:11;2.00;;;1.20;;
81330;SDS011;70793;53.076;8.822;2023-06-22T09:19:38;1.40;;;1.30;;
81330;SDS011;70793;53.076;8.822;2023-06-22T09:22:03;2.50;;;1.45;;
81330;SDS011;70793;53.076;8.822;2023-06-22T09:24:31;2.03;;;1.60;;
81330;SDS011;70793;53.076;8.822;2023-06-22T09:26:56;2.70;;;1.67;;
81330;SDS011;70793;53.076;8.822;2023-06-22T09:29:21;2.67;;;2.45;;
81330;SDS011;70793;53.076;8.822;2023-06-22T09:31:47;1.98;;;1.55;;
81330;SDS011;70793;53.076;8.822;2023-06-22T09:34:12;2.65;;;2.20;;
81330;SDS011;70793;53.076;8.822;2023-06-22T09:36:37;1.80;;;1.50;;
81330;SDS011;70793;53.076;8.822;2023-06-22T09:39:04;2.35;;;1.83;;
81330;SDS011;70793;53.076;8.822;2023-06-22T09:41:31;2.83;;;1.98;;
81330;SDS011;70793;53.076;8.822;2023-06-22T09:43:57;2.83;;;1.90;;
81330;SDS011;70793;53.076;8.822;2023-06-22T09:46:22;1.95;;;1.52;;
81330;SDS011;70793;53.076;8.822;2023-06-22T09:48:50;1.60;;;1.48;;
81330;SDS011;70793;53.076;8.822;2023-06-22T09:51:16;1.77;;;1.65;;
81330;SDS011;70793;53.076;8.822;2023-06-22T09:53:41;1.88;;;1.77;;
81330;SDS011;70793;53.076;8.822;2023-06-22T09:56:07;1.77;;;1.58;;
81330;SDS011;70793;53.076;8.822;2023-06-22T09:58:39;1.50;;;1.38;;
81330;SDS011;70793;53.076;8.822;2023-06-22T10:01:04;2.88;;;1.45;;
81330;SDS011;70793;53.076;8.822;2023-06-22T10:03:30;1.60;;;1.50;;
81330;SDS011;70793;53.076;8.822;2023-06-22T10:05:55;1.85;;;1.45;;
81330;SDS011;70793;53.076;8.822;2023-06-22T10:08:21;2.75;;;1.80;;
81330;SDS011;70793;53.076;8.822;2023-06-22T10:10:46;1.83;;;1.63;;
81330;SDS011;70793;53.076;8.822;2023-06-22T10:13:12;2.75;;;1.70;;
81330;SDS011;70793;53.076;8.822;2023-06-22T10:15:37;1.88;;;1.40;;
81330;SDS011;70793;53.076;8.822;2023-06-22T10:18:03;1.80;;;1.70;;
81330;SDS011;70793;53.076;8.822;2023-06-22T10:20:29;1.65;;;1.42;;
81330;SDS011;70793;53.076;8.822;2023-06-22T10:22:54;1.48;;;1.33;;
81330;SDS011;70793;53.076;8.822;2023-06-22T10:25:21;2.25;;;1.40;;
81330;SDS011;70793;53.076;8.822;2023-06-22T10:27:46;2.55;;;1.63;;
81330;SDS011;70793;53.076;8.822;2023-06-22T10:30:12;1.40;;;1.30;;
81330;SDS011;70793;53.076;8.822;2023-06-22T10:32:38;1.65;;;1.42;;
81330;SDS011;70793;53.076;8.822;2023-06-22T10:35:04;1.75;;;1.45;;
81330;SDS011;70793;53.076;8.822;2023-06-22T10:37:30;2.10;;;1.92;;
81330;SDS011;70793;53.076;8.822;2023-06-22T10:39:56;1.73;;;1.50;;
81330;SDS011;70793;53.076;8.822;2023-06-22T10:42:21;1.77;;;1.50;;
81330;SDS011;70793;53.076;8.822;2023-06-22T10:44:47;3.03;;;1.40;;
81330;SDS011;70793;53.076;8.822;2023-06-22T10:47:12;1.83;;;1.63;;
81330;SDS011;70793;53.076;8.822;2023-06-22T10:49:38;1.80;;;1.60;;
81330;SDS011;70793;53.076;8.822;2023-06-22T10:52:05;2.00;;;1.38;;
81330;SDS011;70793;53.076;8.822;2023-06-22T10:54:34;1.58;;;1.40;;
81330;SDS011;70793;53.076;8.822;2023-06-22T10:57:00;2.97;;;1.60;;
81330;SDS011;70793;53.076;8.822;2023-06-22T10:59:26;1.70;;;1.60;;
81330;SDS011;70793;53.076;8.822;2023-06-22T11:01:52;1.50;;;1.40;;
81330;SDS011;70793;53.076;8.822;2023-06-22T11:04:18;1.40;;;1.30;;
81330;SDS011;70793;53.076;8.822;2023-06-22T11:06:43;2.08;;;1.40;;
81330;SDS011;70793;53.076;8.822;2023-06-22T11:09:12;1.35;;;1.25;;
81330;SDS011;70793;53.076;8.822;2023-06-22T11:11:37;1.73;;;1.33;;
81330;SDS011;70793;53.076;8.822;2023-06-22T11:14:03;2.35;;;1.85;;
81330;SDS011;70793;53.076;8.822;2023-06-22T11:16:28;1.48;;;1.38;;
81330;SDS011;70793;53.076;8.822;2023-06-22T11:18:54;2.45;;;1.42;;
81330;SDS011;70793;53.076;8.822;2023-06-22T11:21:19;1.42;;;1.30;;
81330;SDS011;70793;53.076;8.822;2023-06-22T11:23:45;2.20;;;1.30;;
81330;SDS011;70793;53.076;8.822;2023-06-22T11:26:10;1.63;;;1.52;;
81330;SDS011;70793;53.076;8.822;2023-06-22T11:28:36;1.33;;;1.08;;
81330;SDS011;70793;53.076;8.822;2023-06-22T11:31:01;2.15;;;1.80;;
81330;SDS011;70793;53.076;8.822;2023-06-22T11:33:27;1.95;;;1.52;;
81330;SDS011;70793;53.076;8.822;2023-06-22T11:35:52;2.05;;;1.55;;
81330;SDS011;70793;53.076;8.822;2023-06-22T11:38:18;1.45;;;1.35;;
81330;SDS011;70793;53.076;8.822;2023-06-22T11:40:43;1.30;;;1.20;;
81330;SDS011;70793;53.076;8.822;2023-06-22T11:43:09;1.38;;;1.27;;
81330;SDS011;70793;53.076;8.822;2023-06-22T11:45:34;1.95;;;1.48;;
81330;SDS011;70793;53.076;8.822;2023-06-22T11:48:00;1.63;;;1.30;;
81330;SDS011;70793;53.076;8.822;2023-06-22T11:50:25;1.50;;;1.40;;
81330;SDS011;70793;53.076;8.822;2023-06-22T11:52:51;2.30;;;1.60;;
81330;SDS011;70793;53.076;8.822;2023-06-22T11:55:18;2.75;;;1.40;;
81330;SDS011;70793;53.076;8.822;2023-06-22T11:57:56;1.52;;;1.40;;
81330;SDS011;70793;53.076;8.822;2023-06-22T12:00:25;1.25;;;1.15;;
81330;SDS011;70793;53.076;8.822;2023-06-22T12:02:51;1.50;;;1.40;;
81330;SDS011;70793;53.076;8.822;2023-06-22T12:05:20;1.75;;;1.40;;
81330;SDS011;70793;53.076;8.822;2023-06-22T12:07:49;1.63;;;1.52;;
81330;SDS011;70793;53.076;8.822;2023-06-22T12:10:14;1.63;;;1.48;;
81330;SDS011;70793;53.076;8.822;2023-06-22T12:12:40;1.73;;;1.38;;
81330;SDS011;70793;53.076;8.822;2023-06-22T12:15:07;1.50;;;1.40;;
81330;SDS011;70793;53.076;8.822;2023-06-22T12:17:34;1.70;;;1.45;;
81330;SDS011;70793;53.076;8.822;2023-06-22T12:19:59;3.33;;;1.55;;
81330;SDS011;70793;53.076;8.822;2023-06-22T12:22:25;2.25;;;1.45;;
81330;SDS011;70793;53.076;8.822;2023-06-22T12:24:50;1.95;;;1.45;;
81330;SDS011;70793;53.076;8.822;2023-06-22T12:27:16;1.27;;;1.17;;
81330;SDS011;70793;53.076;8.822;2023-06-22T12:29:43;1.60;;;1.35;;
81330;SDS011;70793;53.076;8.822;2023-06-22T12:32:10;2.10;;;1.40;;
81330;SDS011;70793;53.076;8.822;2023-06-22T12:34:38;1.45;;;1.35;;
81330;SDS011;70793;53.076;8.822;2023-06-22T12:37:04;1.70;;;1.60;;
81330;SDS011;70793;53.076;8.822;2023-06-22T12:39:30;1.30;;;1.05;;
81330;SDS011;70793;53.076;8.822;2023-06-22T12:41:56;1.52;;;1.42;;
81330;SDS011;70793;53.076;8.822;2023-06-22T12:44:22;1.58;;;1.40;;
81330;SDS011;70793;53.076;8.822;2023-06-22T12:46:47;1.48;;;1.38;;
81330;SDS011;70793;53.076;8.822;2023-06-22T12:49:13;1.13;;;1.02;;
81330;SDS011;70793;53.076;8.822;2023-06-22T12:51:42;1.25;;;1.15;;
81330;SDS011;70793;53.076;8.822;2023-06-22T12:54:08;1.30;;;1.20;;
81330;SDS011;70793;53.076;8.822;2023-06-22T12:56:34;1.42;;;1.33;;
81330;SDS011;70793;53.076;8.822;2023-06-22T12:58:59;1.70;;;1.60;;
81330;SDS011;70793;53.076;8.822;2023-06-22T13:01:28;2.45;;;1.70;;
81330;SDS011;70793;53.076;8.822;2023-06-22T13:03:55;2.55;;;1.45;;
81330;SDS011;70793;53.076;8.822;2023-06-22T13:06:21;1.83;;;1.58;;
81330;SDS011;70793;53.076;8.822;2023-06-22T13:08:46;1.52;;;1.42;;
81330;SDS011;70793;53.076;8.822;2023-06-22T13:11:12;1.40;;;1.27;;
81330;SDS011;70793;53.076;8.822;2023-06-22T13:13:38;2.00;;;1.80;;
81330;SDS011;70793;53.076;8.822;2023-06-22T13:16:03;1.85;;;1.40;;
81330;SDS011;70793;53.076;8.822;2023-06-22T13:18:29;1.70;;;1.40;;
81330;SDS011;70793;53.076;8.822;2023-06-22T13:20:54;1.27;;;1.17;;
81330;SDS011;70793;53.076;8.822;2023-06-22T13:23:20;1.50;;;1.33;;
81330;SDS011;70793;53.076;8.822;2023-06-22T13:25:46;1.50;;;1.40;;
81330;SDS011;70793;53.076;8.822;2023-06-22T13:28:12;3.00;;;1.90;;
81330;SDS011;70793;53.076;8.822;2023-06-22T13:30:39;2.38;;;1.83;;
81330;SDS011;70793;53.076;8.822;2023-06-22T13:33:05;1.40;;;1.30;;
81330;SDS011;70793;53.076;8.822;2023-06-22T13:35:31;2.53;;;1.50;;
81330;SDS011;70793;53.076;8.822;2023-06-22T13:37:56;1.60;;;1.50;;
81330;SDS011;70793;53.076;8.822;2023-06-22T13:40:23;1.60;;;1.48;;
81330;SDS011;70793;53.076;8.822;2023-06-22T13:42:48;1.73;;;1.45;;
81330;SDS011;70793;53.076;8.822;2023-06-22T13:45:14;1.95;;;1.75;;
81330;SDS011;70793;53.076;8.822;2023-06-22T13:47:42;2.20;;;1.60;;
81330;SDS011;70793;53.076;8.822;2023-06-22T13:50:07;1.65;;;1.55;;
81330;SDS011;70793;53.076;8.822;2023-06-22T13:52:33;1.65;;;1.55;;
81330;SDS011;70793;53.076;8.822;2023-06-22T13:55:20;1.88;;;1.73;;
81330;SDS011;70793;53.076;8.822;2023-06-22T13:57:46;1.50;;;1.40;;
81330;SDS011;70793;53.076;8.822;2023-06-22T14:00:11;1.77;;;1.67;;
81330;SDS011;70793;53.076;8.822;2023-06-22T14:02:37;1.90;;;1.80;;
81330;SDS011;70793;53.076;8.822;2023-06-22T14:05:04;1.77;;;1.67;;
81330;SDS011;70793;53.076;8.822;2023-06-22T14:07:30;1.85;;;1.33;;
81330;SDS011;70793;53.076;8.822;2023-06-22T14:09:59;1.83;;;1.70;;
81330;SDS011;70793;53.076;8.822;2023-06-22T14:12:30;1.67;;;1.58;;
81330;SDS011;70793;53.076;8.822;2023-06-22T14:15:00;2.17;;;1.52;;
81330;SDS011;70793;53.076;8.822;2023-06-22T14:17:25;1.75;;;1.50;;
81330;SDS011;70793;53.076;8.822;2023-06-22T14:19:51;1.67;;;1.55;;
81330;SDS011;70793;53.076;8.822;2023-06-22T14:22:20;1.90;;;1.70;;
81330;SDS011;70793;53.076;8.822;2023-06-22T14:24:49;1.83;;;1.50;;
81330;SDS011;70793;53.076;8.822;2023-06-22T14:27:15;1.55;;;1.45;;
81330;SDS011;70793;53.076;8.822;2023-06-22T14:29:41;2.03;;;1.83;;
81330;SDS011;70793;53.076;8.822;2023-06-22T14:32:07;1.88;;;1.73;;
81330;SDS011;70793;53.076;8.822;2023-06-22T14:34:33;2.03;;;1.83;;
81330;SDS011;70793;53.076;8.822;2023-06-22T14:37:01;2.22;;;2.03;;
81330;SDS011;70793;53.076;8.822;2023-06-22T14:39:27;1.70;;;1.50;;
81330;SDS011;70793;53.076;8.822;2023-06-22T14:41:52;2.10;;;1.80;;
81330;SDS011;70793;53.076;8.822;2023-06-22T14:44:18;1.90;;;1.58;;